sensor_id;sensor_type;location;lat;lon;timestamp;temperature;humidity
10300;DHT22;5195;48.562;9.192;2023-03-14T00:00:21;12.30;65.40
10300;DHT22;5195;48.562;9.192;2023-03-14T00:02:52;12.60;64.70
10300;DHT22;5195;48.562;9.192;2023-03-14T00:05:17;12.60;64.10
10300;DHT22;5195;48.562;9.192;2023-03-14T00:07:42;12.40;64.50
10300;DHT22;5195;48.562;9.192;2023-03-14T00:10:09;12.60;63.70
10300;DHT22;5195;48.562;9.192;2023-03-14T00:12:34;12.90;62.80
10300;DHT22;5195;48.562;9.192;2023-03-14T00:14:59;12.90;62.90
10300;DHT22;5195;48.562;9.192;2023-03-14T00:17:31;12.60;63.40
10300;DHT22;5195;48.562;9.192;2023-03-14T00:19:57;12.50;64.20
10300;DHT22;5195;48.562;9.192;2023-03-14T00:22:24;12.60;63.70
10300;DHT22;5195;48.562;9.192;2023-03-14T00:24:50;12.60;63.40
10300;DHT22;5195;48.562;9.192;2023-03-14T00:27:15;13.10;61.50
10300;DHT22;5195;48.562;9.192;2023-03-14T00:29:42;13.10;61.50
10300;DHT22;5195;48.562;9.192;2023-03-14T00:32:07;13.00;61.60
10300;DHT22;5195;48.562;9.192;2023-03-14T00:34:33;13.30;60.10
10300;DHT22;5195;48.562;9.192;2023-03-14T00:36:58;13.30;60.10
10300;DHT22;5195;48.562;9.192;2023-03-14T00:39:24;13.40;58.50
10300;DHT22;5195;48.562;9.192;2023-03-14T00:41:50;13.60;58.20
10300;DHT22;5195;48.562;9.192;2023-03-14T00:44:15;13.30;58.70
10300;DHT22;5195;48.562;9.192;2023-03-14T00:46:41;13.00;59.80
10300;DHT22;5195;48.562;9.192;2023-03-14T00:49:06;13.00;60.20
10300;DHT22;5195;48.562;9.192;2023-03-14T00:51:32;12.90;60.40
10300;DHT22;5195;48.562;9.192;2023-03-14T00:53:58;12.70;61.10
10300;DHT22;5195;48.562;9.192;2023-03-14T00:56:23;12.70;60.30
10300;DHT22;5195;48.562;9.192;2023-03-14T00:58:48;12.70;60.50
10300;DHT22;5195;48.562;9.192;2023-03-14T01:01:15;12.80;60.30
10300;DHT22;5195;48.562;9.192;2023-03-14T01:03:41;13.00;59.30
10300;DHT22;5195;48.562;9.192;2023-03-14T01:06:14;12.90;59.40
10300;DHT22;5195;48.562;9.192;2023-03-14T01:08:39;12.90;59.10
10300;DHT22;5195;48.562;9.192;2023-03-14T01:11:08;13.10;58.90
10300;DHT22;5195;48.562;9.192;2023-03-14T01:13:33;13.00;59.10
10300;DHT22;5195;48.562;9.192;2023-03-14T01:16:02;12.60;59.90
10300;DHT22;5195;48.562;9.192;2023-03-14T01:18:27;12.70;60.20
10300;DHT22;5195;48.562;9.192;2023-03-14T01:20:53;12.60;60.40
10300;DHT22;5195;48.562;9.192;2023-03-14T01:23:18;12.40;61.00
10300;DHT22;5195;48.562;9.192;2023-03-14T01:25:44;12.50;60.70
10300;DHT22;5195;48.562;9.192;2023-03-14T01:28:10;12.20;61.20
10300;DHT22;5195;48.562;9.192;2023-03-14T01:30:36;12.40;61.20
10300;DHT22;5195;48.562;9.192;2023-03-14T01:33:02;12.40;61.20
10300;DHT22;5195;48.562;9.192;2023-03-14T01:35:27;12.60;60.30
10300;DHT22;5195;48.562;9.192;2023-03-14T01:37:53;12.60;60.30
10300;DHT22;5195;48.562;9.192;2023-03-14T01:40:19;12.60;59.90
10300;DHT22;5195;48.562;9.192;2023-03-14T01:42:58;12.90;59.30
10300;DHT22;5195;48.562;9.192;2023-03-14T01:48:35;12.40;60.20
10300;DHT22;5195;48.562;9.192;2023-03-14T01:50:58;12.60;60.30
10300;DHT22;5195;48.562;9.192;2023-03-14T01:53:24;12.80;58.90
10300;DHT22;5195;48.562;9.192;2023-03-14T01:55:50;12.70;59.20
10300;DHT22;5195;48.562;9.192;2023-03-14T01:58:15;12.70;59.40
10300;DHT22;5195;48.562;9.192;2023-03-14T02:00:41;12.50;59.60
10300;DHT22;5195;48.562;9.192;2023-03-14T02:03:09;12.60;59.80
10300;DHT22;5195;48.562;9.192;2023-03-14T02:05:33;12.50;59.90
10300;DHT22;5195;48.562;9.192;2023-03-14T02:07:58;12.60;59.90
10300;DHT22;5195;48.562;9.192;2023-03-14T02:10:25;12.80;59.30
10300;DHT22;5195;48.562;9.192;2023-03-14T02:12:49;12.90;58.80
10300;DHT22;5195;48.562;9.192;2023-03-14T02:15:15;12.80;59.20
10300;DHT22;5195;48.562;9.192;2023-03-14T02:17:40;12.80;58.50
10300;DHT22;5195;48.562;9.192;2023-03-14T02:22:52;12.80;59.10
10300;DHT22;5195;48.562;9.192;2023-03-14T02:28:06;12.10;60.00
10300;DHT22;5195;48.562;9.192;2023-03-14T02:30:32;11.90;60.80
10300;DHT22;5195;48.562;9.192;2023-03-14T02:33:05;11.80;61.40
10300;DHT22;5195;48.562;9.192;2023-03-14T02:35:35;12.00;60.90
10300;DHT22;5195;48.562;9.192;2023-03-14T02:40:55;12.20;59.90
10300;DHT22;5195;48.562;9.192;2023-03-14T02:43:20;12.20;60.00
10300;DHT22;5195;48.562;9.192;2023-03-14T02:45:47;12.00;60.40
10300;DHT22;5195;48.562;9.192;2023-03-14T02:48:21;12.10;59.90
10300;DHT22;5195;48.562;9.192;2023-03-14T02:50:45;12.50;59.10
10300;DHT22;5195;48.562;9.192;2023-03-14T02:53:10;12.40;59.00
10300;DHT22;5195;48.562;9.192;2023-03-14T02:55:36;12.20;59.70
10300;DHT22;5195;48.562;9.192;2023-03-14T02:58:02;12.20;59.20
10300;DHT22;5195;48.562;9.192;2023-03-14T03:00:28;12.20;59.40
10300;DHT22;5195;48.562;9.192;2023-03-14T03:02:54;12.50;58.10
10300;DHT22;5195;48.562;9.192;2023-03-14T03:05:19;12.60;58.20
10300;DHT22;5195;48.562;9.192;2023-03-14T03:07:45;12.80;57.40
10300;DHT22;5195;48.562;9.192;2023-03-14T03:10:11;12.60;57.70
10300;DHT22;5195;48.562;9.192;2023-03-14T03:12:36;12.20;58.50
10300;DHT22;5195;48.562;9.192;2023-03-14T03:15:02;12.00;59.40
10300;DHT22;5195;48.562;9.192;2023-03-14T03:17:27;12.10;59.00
10300;DHT22;5195;48.562;9.192;2023-03-14T03:19:53;12.00;59.10
10300;DHT22;5195;48.562;9.192;2023-03-14T03:22:18;11.80;59.60
10300;DHT22;5195;48.562;9.192;2023-03-14T03:24:45;12.30;58.30
10300;DHT22;5195;48.562;9.192;2023-03-14T03:27:10;12.20;58.20
10300;DHT22;5195;48.562;9.192;2023-03-14T03:29:36;12.50;57.60
10300;DHT22;5195;48.562;9.192;2023-03-14T03:32:02;12.40;57.00
10300;DHT22;5195;48.562;9.192;2023-03-14T03:34:29;12.50;56.70
10300;DHT22;5195;48.562;9.192;2023-03-14T03:36:57;12.50;56.70
10300;DHT22;5195;48.562;9.192;2023-03-14T03:39:23;12.40;57.10
10300;DHT22;5195;48.562;9.192;2023-03-14T03:41:48;12.10;58.00
10300;DHT22;5195;48.562;9.192;2023-03-14T03:44:14;12.10;57.50
10300;DHT22;5195;48.562;9.192;2023-03-14T03:46:40;12.00;57.80
10300;DHT22;5195;48.562;9.192;2023-03-14T03:49:06;12.40;56.70
10300;DHT22;5195;48.562;9.192;2023-03-14T03:51:31;12.30;56.50
10300;DHT22;5195;48.562;9.192;2023-03-14T03:53:57;12.60;56.00
10300;DHT22;5195;48.562;9.192;2023-03-14T03:56:23;12.40;56.50
10300;DHT22;5195;48.562;9.192;2023-03-14T03:58:48;12.00;57.20
10300;DHT22;5195;48.562;9.192;2023-03-14T04:01:14;11.70;57.90
10300;DHT22;5195;48.562;9.192;2023-03-14T04:03:39;11.50;58.70
10300;DHT22;5195;48.562;9.192;2023-03-14T04:06:06;11.30;59.30
10300;DHT22;5195;48.562;9.192;2023-03-14T04:08:31;11.20;59.80
10300;DHT22;5195;48.562;9.192;2023-03-14T04:10:57;11.40;58.90
10300;DHT22;5195;48.562;9.192;2023-03-14T04:13:22;11.70;57.80
10300;DHT22;5195;48.562;9.192;2023-03-14T04:15:48;11.70;57.80
10300;DHT22;5195;48.562;9.192;2023-03-14T04:18:14;12.10;56.40
10300;DHT22;5195;48.562;9.192;2023-03-14T04:20:39;12.10;56.40
10300;DHT22;5195;48.562;9.192;2023-03-14T04:23:05;12.00;56.70
10300;DHT22;5195;48.562;9.192;2023-03-14T04:25:32;12.00;56.20
10300;DHT22;5195;48.562;9.192;2023-03-14T04:27:57;11.90;56.50
10300;DHT22;5195;48.562;9.192;2023-03-14T04:30:23;12.00;56.00
10300;DHT22;5195;48.562;9.192;2023-03-14T04:32:49;12.00;56.40
10300;DHT22;5195;48.562;9.192;2023-03-14T04:35:15;12.00;55.50
10300;DHT22;5195;48.562;9.192;2023-03-14T04:37:40;12.10;55.40
10300;DHT22;5195;48.562;9.192;2023-03-14T04:40:07;12.10;55.60
10300;DHT22;5195;48.562;9.192;2023-03-14T04:42:33;12.10;55.20
10300;DHT22;5195;48.562;9.192;2023-03-14T04:44:59;11.90;55.60
10300;DHT22;5195;48.562;9.192;2023-03-14T04:47:25;11.90;55.60
10300;DHT22;5195;48.562;9.192;2023-03-14T04:49:50;11.60;56.30
10300;DHT22;5195;48.562;9.192;2023-03-14T04:52:16;11.70;56.00
10300;DHT22;5195;48.562;9.192;2023-03-14T04:54:41;11.90;55.00
10300;DHT22;5195;48.562;9.192;2023-03-14T04:57:07;12.10;54.10
10300;DHT22;5195;48.562;9.192;2023-03-14T04:59:33;12.10;53.90
10300;DHT22;5195;48.562;9.192;2023-03-14T05:01:59;12.10;53.90
10300;DHT22;5195;48.562;9.192;2023-03-14T05:04:24;11.80;54.70
10300;DHT22;5195;48.562;9.192;2023-03-14T05:06:50;11.50;55.40
10300;DHT22;5195;48.562;9.192;2023-03-14T05:09:16;11.30;56.00
10300;DHT22;5195;48.562;9.192;2023-03-14T05:11:41;11.40;54.60
10300;DHT22;5195;48.562;9.192;2023-03-14T05:14:07;11.70;53.70
10300;DHT22;5195;48.562;9.192;2023-03-14T05:16:33;11.70;53.70
10300;DHT22;5195;48.562;9.192;2023-03-14T05:18:58;11.80;52.90
10300;DHT22;5195;48.562;9.192;2023-03-14T05:21:24;11.70;53.40
10300;DHT22;5195;48.562;9.192;2023-03-14T05:23:50;11.70;53.10
10300;DHT22;5195;48.562;9.192;2023-03-14T05:26:16;11.70;53.10
10300;DHT22;5195;48.562;9.192;2023-03-14T05:28:43;11.50;53.90
10300;DHT22;5195;48.562;9.192;2023-03-14T05:31:09;11.60;52.80
10300;DHT22;5195;48.562;9.192;2023-03-14T05:33:34;11.80;52.20
10300;DHT22;5195;48.562;9.192;2023-03-14T05:36:00;12.10;51.60
10300;DHT22;5195;48.562;9.192;2023-03-14T05:38:25;11.90;52.40
10300;DHT22;5195;48.562;9.192;2023-03-14T05:40:53;11.90;51.90
10300;DHT22;5195;48.562;9.192;2023-03-14T05:43:19;11.80;52.60
10300;DHT22;5195;48.562;9.192;2023-03-14T05:45:44;11.50;53.40
10300;DHT22;5195;48.562;9.192;2023-03-14T05:48:11;11.10;54.70
10300;DHT22;5195;48.562;9.192;2023-03-14T05:50:36;11.10;54.70
10300;DHT22;5195;48.562;9.192;2023-03-14T05:53:03;11.30;53.80
10300;DHT22;5195;48.562;9.192;2023-03-14T05:55:30;11.20;53.70
10300;DHT22;5195;48.562;9.192;2023-03-14T05:57:55;11.10;54.20
10300;DHT22;5195;48.562;9.192;2023-03-14T06:00:22;11.60;52.40
10300;DHT22;5195;48.562;9.192;2023-03-14T06:02:47;11.60;52.30
10300;DHT22;5195;48.562;9.192;2023-03-14T06:05:13;11.60;52.70
10300;DHT22;5195;48.562;9.192;2023-03-14T06:07:39;11.40;53.40
10300;DHT22;5195;48.562;9.192;2023-03-14T06:10:05;11.20;54.00
10300;DHT22;5195;48.562;9.192;2023-03-14T06:12:31;11.30;52.80
10300;DHT22;5195;48.562;9.192;2023-03-14T06:14:56;11.30;53.20
10300;DHT22;5195;48.562;9.192;2023-03-14T06:17:22;11.10;53.60
10300;DHT22;5195;48.562;9.192;2023-03-14T06:19:47;11.00;54.20
10300;DHT22;5195;48.562;9.192;2023-03-14T06:22:13;11.20;53.10
10300;DHT22;5195;48.562;9.192;2023-03-14T06:24:39;11.40;52.40
10300;DHT22;5195;48.562;9.192;2023-03-14T06:27:05;11.40;52.40
10300;DHT22;5195;48.562;9.192;2023-03-14T06:29:30;11.40;53.00
10300;DHT22;5195;48.562;9.192;2023-03-14T06:31:56;11.30;53.60
10300;DHT22;5195;48.562;9.192;2023-03-14T06:34:21;11.50;52.80
10300;DHT22;5195;48.562;9.192;2023-03-14T06:36:48;12.10;51.10
10300;DHT22;5195;48.562;9.192;2023-03-14T06:39:13;12.10;51.10
10300;DHT22;5195;48.562;9.192;2023-03-14T06:41:39;12.00;51.70
10300;DHT22;5195;48.562;9.192;2023-03-14T06:44:04;12.10;51.10
10300;DHT22;5195;48.562;9.192;2023-03-14T06:46:31;12.30;51.50
10300;DHT22;5195;48.562;9.192;2023-03-14T06:48:58;12.30;51.50
10300;DHT22;5195;48.562;9.192;2023-03-14T06:51:23;12.00;52.40
10300;DHT22;5195;48.562;9.192;2023-03-14T06:53:49;11.80;53.00
10300;DHT22;5195;48.562;9.192;2023-03-14T06:56:15;11.40;54.00
10300;DHT22;5195;48.562;9.192;2023-03-14T06:58:41;11.40;54.00
10300;DHT22;5195;48.562;9.192;2023-03-14T07:01:11;11.60;52.70
10300;DHT22;5195;48.562;9.192;2023-03-14T07:03:32;11.90;51.80
10300;DHT22;5195;48.562;9.192;2023-03-14T07:05:57;11.90;52.20
10300;DHT22;5195;48.562;9.192;2023-03-14T07:08:24;12.10;52.10
10300;DHT22;5195;48.562;9.192;2023-03-14T07:10:49;12.10;52.00
10300;DHT22;5195;48.562;9.192;2023-03-14T07:13:18;12.20;51.20
10300;DHT22;5195;48.562;9.192;2023-03-14T07:15:44;12.20;51.90
10300;DHT22;5195;48.562;9.192;2023-03-14T07:18:09;12.10;52.70
10300;DHT22;5195;48.562;9.192;2023-03-14T07:20:35;12.30;51.80
10300;DHT22;5195;48.562;9.192;2023-03-14T07:23:03;12.60;50.50
10300;DHT22;5195;48.562;9.192;2023-03-14T07:25:30;12.90;49.70
10300;DHT22;5195;48.562;9.192;2023-03-14T07:27:56;12.90;50.50
10300;DHT22;5195;48.562;9.192;2023-03-14T07:30:21;13.00;49.90
10300;DHT22;5195;48.562;9.192;2023-03-14T07:32:47;12.90;50.70
10300;DHT22;5195;48.562;9.192;2023-03-14T07:35:12;13.00;49.50
10300;DHT22;5195;48.562;9.192;2023-03-14T07:37:38;13.20;48.90
10300;DHT22;5195;48.562;9.192;2023-03-14T07:40:04;13.50;48.50
10300;DHT22;5195;48.562;9.192;2023-03-14T07:42:30;13.50;49.70
10300;DHT22;5195;48.562;9.192;2023-03-14T07:44:55;13.60;49.00
10300;DHT22;5195;48.562;9.192;2023-03-14T07:47:21;13.60;50.00
10300;DHT22;5195;48.562;9.192;2023-03-14T07:53:12;14.00;48.00
10300;DHT22;5195;48.562;9.192;2023-03-14T07:55:39;13.80;49.40
10300;DHT22;5195;48.562;9.192;2023-03-14T07:58:03;13.90;48.60
10300;DHT22;5195;48.562;9.192;2023-03-14T08:00:28;14.20;48.30
10300;DHT22;5195;48.562;9.192;2023-03-14T08:02:56;14.60;48.30
10300;DHT22;5195;48.562;9.192;2023-03-14T08:05:21;14.60;49.20
10300;DHT22;5195;48.562;9.192;2023-03-14T08:07:47;14.70;47.80
10300;DHT22;5195;48.562;9.192;2023-03-14T08:10:13;14.50;49.70
10300;DHT22;5195;48.562;9.192;2023-03-14T08:12:39;14.50;49.70
10300;DHT22;5195;48.562;9.192;2023-03-14T08:15:05;14.40;50.50
10300;DHT22;5195;48.562;9.192;2023-03-14T08:17:32;14.30;50.50
10300;DHT22;5195;48.562;9.192;2023-03-14T08:19:57;14.20;50.90
10300;DHT22;5195;48.562;9.192;2023-03-14T08:22:22;14.10;51.00
10300;DHT22;5195;48.562;9.192;2023-03-14T08:24:49;14.30;48.30
10300;DHT22;5195;48.562;9.192;2023-03-14T08:27:15;14.30;49.00
10300;DHT22;5195;48.562;9.192;2023-03-14T08:29:41;14.00;50.30
10300;DHT22;5195;48.562;9.192;2023-03-14T08:32:07;14.00;50.20
10300;DHT22;5195;48.562;9.192;2023-03-14T08:34:33;14.20;48.20
10300;DHT22;5195;48.562;9.192;2023-03-14T08:36:58;14.50;47.10
10300;DHT22;5195;48.562;9.192;2023-03-14T08:39:23;14.90;47.30
10300;DHT22;5195;48.562;9.192;2023-03-14T08:41:49;15.20;46.70
10300;DHT22;5195;48.562;9.192;2023-03-14T08:44:15;15.60;44.00
10300;DHT22;5195;48.562;9.192;2023-03-14T08:46:47;15.60;44.30
10300;DHT22;5195;48.562;9.192;2023-03-14T08:49:13;15.80;44.40
10300;DHT22;5195;48.562;9.192;2023-03-14T08:51:39;15.90;43.40
10300;DHT22;5195;48.562;9.192;2023-03-14T08:54:04;16.00;43.80
10300;DHT22;5195;48.562;9.192;2023-03-14T08:56:31;15.90;45.50
10300;DHT22;5195;48.562;9.192;2023-03-14T08:58:57;15.90;45.30
10300;DHT22;5195;48.562;9.192;2023-03-14T09:01:23;16.10;45.00
10300;DHT22;5195;48.562;9.192;2023-03-14T09:03:48;16.20;46.20
10300;DHT22;5195;48.562;9.192;2023-03-14T09:06:14;16.10;46.80
10300;DHT22;5195;48.562;9.192;2023-03-14T09:08:41;16.30;44.10
10300;DHT22;5195;48.562;9.192;2023-03-14T09:11:08;16.30;45.00
10300;DHT22;5195;48.562;9.192;2023-03-14T09:13:33;16.40;43.30
10300;DHT22;5195;48.562;9.192;2023-03-14T09:15:58;16.20;44.20
10300;DHT22;5195;48.562;9.192;2023-03-14T09:18:24;16.20;43.90
10300;DHT22;5195;48.562;9.192;2023-03-14T09:20:49;16.30;44.90
10300;DHT22;5195;48.562;9.192;2023-03-14T09:23:15;16.50;45.10
10300;DHT22;5195;48.562;9.192;2023-03-14T09:25:42;16.60;43.60
10300;DHT22;5195;48.562;9.192;2023-03-14T09:28:07;16.60;43.00
10300;DHT22;5195;48.562;9.192;2023-03-14T09:30:33;16.40;44.40
10300;DHT22;5195;48.562;9.192;2023-03-14T09:32:58;15.90;45.30
10300;DHT22;5195;48.562;9.192;2023-03-14T09:35:24;15.60;46.50
10300;DHT22;5195;48.562;9.192;2023-03-14T09:37:51;15.60;46.30
10300;DHT22;5195;48.562;9.192;2023-03-14T09:40:17;15.50;47.20
10300;DHT22;5195;48.562;9.192;2023-03-14T09:42:43;15.60;47.70
10300;DHT22;5195;48.562;9.192;2023-03-14T09:45:13;15.70;48.20
10300;DHT22;5195;48.562;9.192;2023-03-14T09:47:37;15.60;48.80
10300;DHT22;5195;48.562;9.192;2023-03-14T09:50:05;15.20;49.30
10300;DHT22;5195;48.562;9.192;2023-03-14T09:52:35;15.20;48.80
10300;DHT22;5195;48.562;9.192;2023-03-14T09:57:27;15.10;49.60
10300;DHT22;5195;48.562;9.192;2023-03-14T09:59:57;15.10;48.70
10300;DHT22;5195;48.562;9.192;2023-03-14T10:02:23;15.10;48.70
10300;DHT22;5195;48.562;9.192;2023-03-14T10:04:50;14.90;49.40
10300;DHT22;5195;48.562;9.192;2023-03-14T10:07:16;14.50;50.20
10300;DHT22;5195;48.562;9.192;2023-03-14T10:09:42;14.50;49.70
10300;DHT22;5195;48.562;9.192;2023-03-14T10:12:07;14.40;50.40
10300;DHT22;5195;48.562;9.192;2023-03-14T10:14:37;14.50;50.00
10300;DHT22;5195;48.562;9.192;2023-03-14T10:17:05;14.40;50.30
10300;DHT22;5195;48.562;9.192;2023-03-14T10:19:30;14.60;49.30
10300;DHT22;5195;48.562;9.192;2023-03-14T10:21:55;14.50;50.00
10300;DHT22;5195;48.562;9.192;2023-03-14T10:24:22;14.70;49.60
10300;DHT22;5195;48.562;9.192;2023-03-14T10:26:48;14.80;49.50
10300;DHT22;5195;48.562;9.192;2023-03-14T10:29:13;14.80;49.50
10300;DHT22;5195;48.562;9.192;2023-03-14T10:32:00;14.80;50.00
10300;DHT22;5195;48.562;9.192;2023-03-14T10:34:29;14.70;50.60
10300;DHT22;5195;48.562;9.192;2023-03-14T10:36:53;14.90;48.60
10300;DHT22;5195;48.562;9.192;2023-03-14T10:41:54;15.10;48.40
10300;DHT22;5195;48.562;9.192;2023-03-14T10:44:20;14.80;49.20
10300;DHT22;5195;48.562;9.192;2023-03-14T10:46:44;14.60;49.80
10300;DHT22;5195;48.562;9.192;2023-03-14T10:49:15;14.70;48.10
10300;DHT22;5195;48.562;9.192;2023-03-14T10:51:35;14.70;48.90
10300;DHT22;5195;48.562;9.192;2023-03-14T10:54:19;14.60;49.60
10300;DHT22;5195;48.562;9.192;2023-03-14T10:56:40;15.10;46.30
10300;DHT22;5195;48.562;9.192;2023-03-14T10:59:07;15.10;47.40
10300;DHT22;5195;48.562;9.192;2023-03-14T11:01:40;15.10;47.40
10300;DHT22;5195;48.562;9.192;2023-03-14T11:07:43;15.40;46.50
10300;DHT22;5195;48.562;9.192;2023-03-14T11:09:46;15.60;46.80
10300;DHT22;5195;48.562;9.192;2023-03-14T11:12:37;15.40;46.70
10300;DHT22;5195;48.562;9.192;2023-03-14T11:15:02;15.40;46.70
10300;DHT22;5195;48.562;9.192;2023-03-14T11:17:30;15.20;48.50
10300;DHT22;5195;48.562;9.192;2023-03-14T11:22:43;15.20;48.00
10300;DHT22;5195;48.562;9.192;2023-03-14T11:28:09;15.00;48.60
10300;DHT22;5195;48.562;9.192;2023-03-14T11:33:37;14.40;50.50
10300;DHT22;5195;48.562;9.192;2023-03-14T11:36:09;14.20;51.20
10300;DHT22;5195;48.562;9.192;2023-03-14T11:38:58;14.10;51.60
10300;DHT22;5195;48.562;9.192;2023-03-14T11:41:20;14.30;50.90
10300;DHT22;5195;48.562;9.192;2023-03-14T11:43:49;14.60;49.90
10300;DHT22;5195;48.562;9.192;2023-03-14T11:46:34;14.90;48.70
10300;DHT22;5195;48.562;9.192;2023-03-14T11:49:25;14.60;49.20
10300;DHT22;5195;48.562;9.192;2023-03-14T11:51:49;14.60;49.60
10300;DHT22;5195;48.562;9.192;2023-03-14T11:57:10;13.90;51.20
10300;DHT22;5195;48.562;9.192;2023-03-14T12:02:27;13.90;51.10
10300;DHT22;5195;48.562;9.192;2023-03-14T12:07:29;13.60;51.80
10300;DHT22;5195;48.562;9.192;2023-03-14T12:09:52;13.50;51.80
10300;DHT22;5195;48.562;9.192;2023-03-14T12:12:22;13.30;51.90
10300;DHT22;5195;48.562;9.192;2023-03-14T12:14:44;13.20;52.30
10300;DHT22;5195;48.562;9.192;2023-03-14T12:19:35;13.80;51.10
10300;DHT22;5195;48.562;9.192;2023-03-14T12:24:40;14.00;51.40
10300;DHT22;5195;48.562;9.192;2023-03-14T12:27:06;13.80;52.40
10300;DHT22;5195;48.562;9.192;2023-03-14T12:29:31;13.80;52.40
10300;DHT22;5195;48.562;9.192;2023-03-14T12:34:30;14.20;51.30
10300;DHT22;5195;48.562;9.192;2023-03-14T12:37:25;14.00;51.70
10300;DHT22;5195;48.562;9.192;2023-03-14T12:42:40;14.20;49.90
10300;DHT22;5195;48.562;9.192;2023-03-14T12:45:24;14.20;49.90
10300;DHT22;5195;48.562;9.192;2023-03-14T12:48:03;14.00;50.50
10300;DHT22;5195;48.562;9.192;2023-03-14T12:50:43;14.10;47.80
10300;DHT22;5195;48.562;9.192;2023-03-14T12:56:20;14.10;47.10
10300;DHT22;5195;48.562;9.192;2023-03-14T13:01:29;14.60;43.60
10300;DHT22;5195;48.562;9.192;2023-03-14T13:03:56;14.60;43.60
10300;DHT22;5195;48.562;9.192;2023-03-14T13:06:55;14.90;42.60
10300;DHT22;5195;48.562;9.192;2023-03-14T13:11:58;15.30;38.30
10300;DHT22;5195;48.562;9.192;2023-03-14T13:14:22;15.40;38.20
10300;DHT22;5195;48.562;9.192;2023-03-14T13:16:47;15.20;40.40
10300;DHT22;5195;48.562;9.192;2023-03-14T13:19:24;14.80;42.40
10300;DHT22;5195;48.562;9.192;2023-03-14T13:21:49;14.70;39.10
10300;DHT22;5195;48.562;9.192;2023-03-14T13:24:25;14.80;38.30
10300;DHT22;5195;48.562;9.192;2023-03-14T13:26:52;14.90;37.50
10300;DHT22;5195;48.562;9.192;2023-03-14T13:31:46;13.80;42.60
10300;DHT22;5195;48.562;9.192;2023-03-14T13:34:11;13.80;42.60
10300;DHT22;5195;48.562;9.192;2023-03-14T13:36:37;13.60;42.60
10300;DHT22;5195;48.562;9.192;2023-03-14T13:39:02;13.60;37.90
10300;DHT22;5195;48.562;9.192;2023-03-14T13:41:29;13.60;39.70
10300;DHT22;5195;48.562;9.192;2023-03-14T13:44:03;13.30;41.20
10300;DHT22;5195;48.562;9.192;2023-03-14T13:46:28;13.00;42.60
10300;DHT22;5195;48.562;9.192;2023-03-14T13:49:03;12.80;43.30
10300;DHT22;5195;48.562;9.192;2023-03-14T13:51:26;12.70;43.90
10300;DHT22;5195;48.562;9.192;2023-03-14T13:53:53;12.80;39.10
10300;DHT22;5195;48.562;9.192;2023-03-14T13:56:18;12.80;40.80
10300;DHT22;5195;48.562;9.192;2023-03-14T13:58:43;12.60;41.80
10300;DHT22;5195;48.562;9.192;2023-03-14T14:01:20;12.70;40.20
10300;DHT22;5195;48.562;9.192;2023-03-14T14:03:46;12.70;40.20
10300;DHT22;5195;48.562;9.192;2023-03-14T14:08:58;12.20;42.50
10300;DHT22;5195;48.562;9.192;2023-03-14T14:14:16;12.10;39.20
10300;DHT22;5195;48.562;9.192;2023-03-14T14:16:43;12.10;41.50
10300;DHT22;5195;48.562;9.192;2023-03-14T14:19:07;12.30;38.70
10300;DHT22;5195;48.562;9.192;2023-03-14T14:21:33;12.30;41.30
10300;DHT22;5195;48.562;9.192;2023-03-14T14:23:59;12.40;39.30
10300;DHT22;5195;48.562;9.192;2023-03-14T14:26:25;12.40;39.30
10300;DHT22;5195;48.562;9.192;2023-03-14T14:29:40;12.60;37.60
10300;DHT22;5195;48.562;9.192;2023-03-14T14:31:17;12.60;39.40
10300;DHT22;5195;48.562;9.192;2023-03-14T14:33:43;12.70;37.10
10300;DHT22;5195;48.562;9.192;2023-03-14T14:36:13;12.70;39.30
10300;DHT22;5195;48.562;9.192;2023-03-14T14:38:34;12.70;39.80
10300;DHT22;5195;48.562;9.192;2023-03-14T14:41:00;12.70;39.10
10300;DHT22;5195;48.562;9.192;2023-03-14T14:43:26;12.80;35.80
10300;DHT22;5195;48.562;9.192;2023-03-14T14:45:52;12.60;37.90
10300;DHT22;5195;48.562;9.192;2023-03-14T14:48:19;12.70;35.20
10300;DHT22;5195;48.562;9.192;2023-03-14T14:50:58;12.50;38.50
10300;DHT22;5195;48.562;9.192;2023-03-14T14:55:55;12.50;36.70
10300;DHT22;5195;48.562;9.192;2023-03-14T14:58:24;12.50;35.00
10300;DHT22;5195;48.562;9.192;2023-03-14T15:00:53;12.40;37.70
10300;DHT22;5195;48.562;9.192;2023-03-14T15:03:17;12.20;38.40
10300;DHT22;5195;48.562;9.192;2023-03-14T15:05:42;12.30;34.60
10300;DHT22;5195;48.562;9.192;2023-03-14T15:08:11;12.60;34.50
10300;DHT22;5195;48.562;9.192;2023-03-14T15:10:37;12.80;35.70
10300;DHT22;5195;48.562;9.192;2023-03-14T15:13:03;12.80;35.70
10300;DHT22;5195;48.562;9.192;2023-03-14T15:15:28;12.90;34.10
10300;DHT22;5195;48.562;9.192;2023-03-14T15:17:54;12.80;36.00
10300;DHT22;5195;48.562;9.192;2023-03-14T15:20:19;12.50;37.40
10300;DHT22;5195;48.562;9.192;2023-03-14T15:22:45;12.30;38.50
10300;DHT22;5195;48.562;9.192;2023-03-14T15:25:11;12.20;35.20
10300;DHT22;5195;48.562;9.192;2023-03-14T15:27:37;12.20;35.20
10300;DHT22;5195;48.562;9.192;2023-03-14T15:30:02;12.60;34.40
10300;DHT22;5195;48.562;9.192;2023-03-14T15:32:28;12.90;34.00
10300;DHT22;5195;48.562;9.192;2023-03-14T15:34:55;12.80;36.00
10300;DHT22;5195;48.562;9.192;2023-03-14T15:37:21;12.60;37.30
10300;DHT22;5195;48.562;9.192;2023-03-14T15:39:46;12.60;37.40
10300;DHT22;5195;48.562;9.192;2023-03-14T15:42:11;12.90;35.90
10300;DHT22;5195;48.562;9.192;2023-03-14T15:44:37;13.20;36.70
10300;DHT22;5195;48.562;9.192;2023-03-14T15:47:04;13.40;36.40
10300;DHT22;5195;48.562;9.192;2023-03-14T15:49:30;13.60;35.70
10300;DHT22;5195;48.562;9.192;2023-03-14T15:51:55;13.70;36.00
10300;DHT22;5195;48.562;9.192;2023-03-14T15:54:21;13.40;36.80
10300;DHT22;5195;48.562;9.192;2023-03-14T15:56:47;13.00;37.70
10300;DHT22;5195;48.562;9.192;2023-03-14T15:59:12;12.70;38.60
10300;DHT22;5195;48.562;9.192;2023-03-14T16:01:38;12.80;37.80
10300;DHT22;5195;48.562;9.192;2023-03-14T16:04:03;12.70;38.90
10300;DHT22;5195;48.562;9.192;2023-03-14T16:06:29;12.40;38.20
10300;DHT22;5195;48.562;9.192;2023-03-14T16:08:54;12.50;35.50
10300;DHT22;5195;48.562;9.192;2023-03-14T16:11:20;12.70;38.70
10300;DHT22;5195;48.562;9.192;2023-03-14T16:13:45;13.00;35.60
10300;DHT22;5195;48.562;9.192;2023-03-14T16:16:11;13.20;37.20
10300;DHT22;5195;48.562;9.192;2023-03-14T16:18:38;13.40;37.20
10300;DHT22;5195;48.562;9.192;2023-03-14T16:21:04;13.40;37.20
10300;DHT22;5195;48.562;9.192;2023-03-14T16:23:28;13.20;38.70
10300;DHT22;5195;48.562;9.192;2023-03-14T16:25:55;12.60;41.10
10300;DHT22;5195;48.562;9.192;2023-03-14T16:28:21;12.70;38.30
10300;DHT22;5195;48.562;9.192;2023-03-14T16:30:47;12.60;38.20
10300;DHT22;5195;48.562;9.192;2023-03-14T16:33:13;12.90;38.60
10300;DHT22;5195;48.562;9.192;2023-03-14T16:35:38;13.10;37.70
10300;DHT22;5195;48.562;9.192;2023-03-14T16:38:04;12.70;40.20
10300;DHT22;5195;48.562;9.192;2023-03-14T16:40:30;12.70;41.10
10300;DHT22;5195;48.562;9.192;2023-03-14T16:42:56;12.70;40.40
10300;DHT22;5195;48.562;9.192;2023-03-14T16:45:21;12.70;40.40
10300;DHT22;5195;48.562;9.192;2023-03-14T16:47:47;12.40;41.10
10300;DHT22;5195;48.562;9.192;2023-03-14T16:50:13;12.50;39.40